OOMS 251850Z 21004KT CAVOK 29/21 Q1004 NOSIG